createdAt,value
2023-01-19T00:00:27.125Z,1.40
2023-01-19T00:02:54.954Z,1.00
2023-01-19T00:05:21.790Z,0.70
2023-01-19T00:07:48.308Z,0.60
2023-01-19T00:10:15.175Z,0.77
2023-01-19T00:12:41.647Z,0.70
2023-01-19T00:15:08.800Z,0.90
2023-01-19T00:17:35.361Z,0.50
2023-01-19T00:20:01.917Z,0.20
2023-01-19T00:22:28.315Z,0.20
2023-01-19T00:24:54.818Z,0.10
2023-01-19T00:27:21.219Z,0.00
2023-01-19T00:29:47.647Z,0.10
2023-01-19T00:32:14.155Z,0.17
2023-01-19T00:34:49.306Z,0.08
2023-01-19T00:37:16.859Z,0.10
2023-01-19T00:39:43.590Z,0.10
2023-01-19T00:42:31.745Z,0.17
2023-01-19T00:44:58.252Z,0.17
2023-01-19T00:47:25.286Z,0.10
2023-01-19T00:49:51.772Z,0.20
2023-01-19T00:52:18.135Z,0.35
2023-01-19T00:54:44.541Z,0.30
2023-01-19T00:57:10.983Z,0.38
2023-01-19T00:59:37.357Z,0.40
2023-01-19T01:02:04.076Z,0.60
2023-01-19T01:04:30.796Z,0.50
2023-01-19T01:06:57.325Z,0.90
2023-01-19T01:09:24.223Z,1.13
2023-01-19T01:11:50.728Z,1.05
2023-01-19T01:14:18.049Z,1.40
2023-01-19T01:16:44.667Z,1.83
2023-01-19T01:19:11.123Z,2.00
2023-01-19T01:21:37.530Z,1.75
2023-01-19T01:24:04.623Z,2.17
2023-01-19T01:26:31.039Z,2.38
2023-01-19T01:28:57.474Z,2.30
2023-01-19T01:31:24.002Z,2.00
2023-01-19T01:33:50.631Z,2.05
2023-01-19T01:36:18.943Z,2.22
2023-01-19T01:38:45.424Z,1.70
2023-01-19T01:41:12.236Z,0.90
2023-01-19T01:43:48.092Z,0.43
2023-01-19T01:46:16.253Z,0.63
2023-01-19T01:48:52.589Z,0.40
2023-01-19T01:51:34.594Z,0.30
2023-01-19T01:54:07.128Z,0.20
2023-01-19T01:56:43.670Z,0.10
2023-01-19T01:59:18.037Z,0.20
2023-01-19T02:02:03.372Z,0.20
2023-01-19T02:04:31.610Z,0.10
2023-01-19T02:07:16.824Z,0.10
2023-01-19T02:10:02.113Z,0.00
2023-01-19T02:12:47.434Z,0.20
2023-01-19T02:15:20.237Z,0.00
2023-01-19T02:17:47.519Z,0.10
2023-01-19T02:20:14.817Z,0.00
2023-01-19T02:22:50.320Z,0.10
2023-01-19T02:25:19.233Z,0.10
2023-01-19T02:27:46.411Z,0.20
2023-01-19T02:30:14.123Z,0.00
2023-01-19T02:32:40.523Z,0.10
2023-01-19T02:35:07.281Z,0.00
2023-01-19T02:37:37.604Z,0.13
2023-01-19T02:40:07.854Z,0.60
2023-01-19T02:42:36.875Z,0.00
2023-01-19T02:45:06.796Z,0.08
2023-01-19T02:47:43.186Z,0.30
2023-01-19T02:50:57.370Z,0.20
2023-01-19T02:53:47.527Z,0.00
2023-01-19T02:56:28.842Z,0.00
2023-01-19T02:59:06.318Z,0.10
2023-01-19T03:01:42.975Z,0.10
2023-01-19T03:04:40.722Z,0.10
2023-01-19T03:07:30.579Z,0.10
2023-01-19T03:10:12.795Z,0.00
2023-01-19T03:12:42.151Z,0.20
2023-01-19T03:15:18.290Z,0.03
2023-01-19T03:17:48.752Z,0.00
2023-01-19T03:20:20.135Z,0.10
2023-01-19T03:22:52.157Z,0.00
2023-01-19T03:25:20.283Z,0.00
2023-01-19T03:27:49.845Z,0.10
2023-01-19T03:30:22.301Z,0.00
2023-01-19T03:32:54.767Z,0.00
2023-01-19T03:35:26.077Z,0.00
2023-01-19T03:37:56.034Z,0.05
2023-01-19T03:40:23.771Z,0.10
2023-01-19T03:42:50.436Z,0.08
2023-01-19T03:45:18.217Z,0.10
2023-01-19T03:47:45.153Z,0.05
2023-01-19T03:50:24.161Z,0.00
2023-01-19T03:53:01.270Z,0.07
2023-01-19T03:55:27.972Z,0.10
2023-01-19T03:57:54.341Z,0.00
2023-01-19T04:00:20.957Z,0.00
2023-01-19T04:02:47.443Z,0.10
2023-01-19T04:05:14.434Z,0.20
2023-01-19T04:07:41.384Z,0.17
2023-01-19T04:10:12.549Z,0.00
2023-01-19T04:12:40.072Z,0.10
2023-01-19T04:15:07.241Z,0.03
2023-01-19T04:17:33.667Z,0.10
2023-01-19T04:20:00.415Z,0.13
2023-01-19T04:22:26.916Z,0.10
2023-01-19T04:24:53.611Z,0.10
2023-01-19T04:27:20.076Z,0.10
2023-01-19T04:29:46.576Z,0.10
2023-01-19T04:32:13.830Z,0.10
2023-01-19T04:34:41.659Z,0.10
2023-01-19T04:37:08.561Z,0.00
2023-01-19T04:39:35.401Z,0.10
2023-01-19T04:42:02.334Z,0.10
2023-01-19T04:44:29.101Z,0.00
2023-01-19T04:46:55.571Z,0.00
2023-01-19T04:49:21.998Z,0.22
2023-01-19T04:51:48.473Z,0.08
2023-01-19T04:54:14.946Z,0.20
2023-01-19T04:56:41.448Z,0.10
2023-01-19T04:59:08.032Z,0.20
2023-01-19T05:01:34.644Z,0.10
2023-01-19T05:04:03.667Z,0.15
2023-01-19T05:06:30.090Z,0.10
2023-01-19T05:08:56.508Z,0.05
2023-01-19T05:11:22.948Z,0.20
2023-01-19T05:13:50.991Z,0.10
2023-01-19T05:16:18.066Z,0.10
2023-01-19T05:18:44.656Z,0.00
2023-01-19T05:21:11.251Z,0.10
2023-01-19T05:23:37.698Z,0.10
2023-01-19T05:26:04.367Z,0.20
2023-01-19T05:28:32.710Z,0.20
2023-01-19T05:30:59.181Z,0.10
2023-01-19T05:33:26.296Z,0.22
2023-01-19T05:35:53.781Z,0.20
2023-01-19T05:38:34.227Z,0.30
2023-01-19T05:41:01.625Z,0.10
2023-01-19T05:43:28.156Z,0.30
2023-01-19T05:45:54.574Z,0.50
2023-01-19T05:48:21.049Z,0.68
2023-01-19T05:50:49.457Z,0.30
2023-01-19T05:53:17.136Z,0.08
2023-01-19T05:55:43.568Z,0.27
2023-01-19T05:58:10.030Z,0.22
2023-01-19T06:00:36.502Z,0.10
2023-01-19T06:03:03.844Z,0.25
2023-01-19T06:05:30.751Z,0.50
2023-01-19T06:07:57.248Z,0.50
2023-01-19T06:10:23.905Z,0.20
2023-01-19T06:12:51.697Z,0.20
2023-01-19T06:15:19.014Z,0.25
2023-01-19T06:17:45.731Z,0.50
2023-01-19T06:20:14.057Z,0.83
2023-01-19T06:22:40.508Z,0.30
2023-01-19T06:25:07.200Z,0.20
2023-01-19T06:27:33.721Z,0.32
2023-01-19T06:30:00.388Z,0.20
2023-01-19T06:32:26.864Z,0.20
2023-01-19T06:34:54.075Z,0.43
2023-01-19T06:37:20.698Z,0.28
2023-01-19T06:39:47.117Z,0.32
2023-01-19T06:42:15.532Z,0.20
2023-01-19T06:44:47.392Z,0.40
2023-01-19T06:47:16.406Z,0.20
2023-01-19T06:49:43.326Z,0.40
2023-01-19T06:52:18.364Z,0.32
2023-01-19T06:54:45.449Z,0.20
2023-01-19T06:57:12.277Z,0.50
2023-01-19T06:59:38.918Z,0.22
2023-01-19T07:02:27.416Z,0.30
2023-01-19T07:04:52.454Z,0.30
2023-01-19T07:07:18.978Z,0.20
2023-01-19T07:09:49.592Z,0.30
2023-01-19T07:12:20.356Z,0.50
2023-01-19T07:14:46.752Z,0.75
2023-01-19T07:17:13.148Z,0.28
2023-01-19T07:19:39.562Z,0.63
2023-01-19T07:22:05.970Z,0.30
2023-01-19T07:24:34.254Z,0.30
2023-01-19T07:27:00.798Z,0.50
2023-01-19T07:29:27.325Z,0.40
2023-01-19T07:31:56.765Z,0.60
2023-01-19T07:34:23.322Z,0.37
2023-01-19T07:36:49.703Z,0.50
2023-01-19T07:39:16.142Z,0.60
2023-01-19T07:41:42.664Z,0.28
2023-01-19T07:44:09.458Z,0.77
2023-01-19T07:46:35.857Z,0.67
2023-01-19T07:49:02.293Z,0.20
2023-01-19T07:51:28.695Z,0.68
2023-01-19T07:53:55.132Z,0.40
2023-01-19T07:56:22.427Z,0.77
2023-01-19T07:58:50.319Z,0.50
2023-01-19T08:01:16.845Z,0.40
2023-01-19T08:03:43.831Z,0.82
2023-01-19T08:06:27.046Z,0.40
2023-01-19T08:08:53.542Z,0.70
2023-01-19T08:11:19.968Z,0.80
2023-01-19T08:13:46.382Z,0.52
2023-01-19T08:16:12.875Z,0.45
2023-01-19T08:18:39.670Z,0.30
2023-01-19T08:21:06.108Z,0.63
2023-01-19T08:23:32.589Z,0.70
2023-01-19T08:25:58.950Z,0.57
2023-01-19T08:28:26.005Z,0.57
2023-01-19T08:30:55.459Z,0.60
2023-01-19T08:33:23.949Z,0.40
2023-01-19T08:35:53.347Z,0.70
2023-01-19T08:38:19.858Z,0.55
2023-01-19T08:40:46.472Z,0.70
2023-01-19T08:43:15.596Z,0.70
2023-01-19T08:45:49.052Z,1.15
2023-01-19T08:48:17.748Z,0.97
2023-01-19T08:50:47.171Z,0.60
2023-01-19T08:53:13.996Z,0.68
2023-01-19T08:55:40.596Z,1.10
2023-01-19T08:58:08.782Z,0.70
2023-01-19T09:00:38.019Z,0.70
2023-01-19T09:03:06.443Z,0.73
2023-01-19T09:05:38.789Z,0.82
2023-01-19T09:08:09.151Z,0.38
2023-01-19T09:10:37.719Z,0.40
2023-01-19T09:13:05.483Z,0.50
2023-01-19T09:15:35.699Z,0.32
2023-01-19T09:18:04.792Z,0.45
2023-01-19T09:20:32.283Z,0.38
2023-01-19T09:22:58.771Z,0.73
2023-01-19T09:25:25.222Z,0.50
2023-01-19T09:27:52.011Z,0.38
2023-01-19T09:30:19.139Z,0.50
2023-01-19T09:32:45.871Z,0.50
2023-01-19T09:35:12.477Z,0.68
2023-01-19T09:37:39.090Z,0.40
2023-01-19T09:40:06.660Z,0.45
2023-01-19T09:42:39.404Z,0.60
2023-01-19T09:45:12.246Z,0.38
2023-01-19T09:47:39.133Z,0.28
2023-01-19T09:50:13.950Z,0.20
2023-01-19T09:52:48.014Z,0.50
2023-01-19T09:55:22.632Z,0.63
2023-01-19T09:57:49.083Z,1.10
2023-01-19T10:00:19.084Z,0.52
2023-01-19T10:03:20.568Z,0.60
2023-01-19T10:05:55.409Z,0.45
2023-01-19T10:08:52.354Z,0.40
2023-01-19T10:11:51.577Z,1.08
2023-01-19T10:14:34.126Z,0.70
2023-01-19T10:17:15.367Z,0.40
2023-01-19T10:19:47.590Z,0.30
2023-01-19T10:22:25.665Z,0.30
2023-01-19T10:24:59.143Z,0.40
2023-01-19T10:27:31.505Z,0.47
2023-01-19T10:29:59.333Z,0.50
2023-01-19T10:32:30.394Z,0.43
2023-01-19T10:34:59.458Z,0.30
2023-01-19T10:37:36.866Z,0.45
2023-01-19T10:40:22.248Z,0.20
2023-01-19T10:42:48.715Z,0.20
2023-01-19T10:45:17.475Z,0.20
2023-01-19T10:47:45.996Z,0.30
2023-01-19T10:50:39.957Z,0.22
2023-01-19T10:53:18.221Z,0.38
2023-01-19T10:55:44.686Z,0.30
2023-01-19T10:58:29.669Z,0.28
2023-01-19T11:01:11.962Z,0.30
2023-01-19T11:03:38.430Z,0.47
2023-01-19T11:06:15.377Z,0.20
2023-01-19T11:08:43.697Z,0.30
2023-01-19T11:11:12.443Z,0.30
2023-01-19T11:13:42.900Z,0.30
2023-01-19T11:16:28.997Z,0.40
2023-01-19T11:18:58.006Z,0.30
2023-01-19T11:21:27.803Z,0.10
2023-01-19T11:23:57.550Z,0.35
2023-01-19T11:26:34.998Z,0.43
2023-01-19T11:29:04.562Z,0.32
2023-01-19T11:31:35.739Z,0.40
2023-01-19T11:34:05.735Z,0.20
2023-01-19T11:36:35.730Z,0.20
2023-01-19T11:39:27.985Z,0.40
2023-01-19T11:41:58.241Z,0.30
2023-01-19T11:44:30.431Z,0.60
2023-01-19T11:47:00.032Z,0.30
2023-01-19T11:49:44.763Z,0.20
2023-01-19T11:52:26.537Z,0.30
2023-01-19T11:55:21.324Z,0.20
2023-01-19T11:57:51.142Z,0.30
2023-01-19T12:00:25.210Z,0.20
2023-01-19T12:02:57.827Z,0.30
2023-01-19T12:05:30.862Z,0.32
2023-01-19T12:08:00.715Z,0.20
2023-01-19T12:10:36.375Z,0.20
2023-01-19T12:13:03.630Z,0.10
2023-01-19T12:15:38.082Z,0.52
2023-01-19T12:18:11.023Z,0.40
2023-01-19T12:20:44.583Z,0.20
2023-01-19T12:23:10.960Z,0.20
2023-01-19T12:26:16.471Z,0.10
2023-01-19T12:28:52.099Z,0.10
2023-01-19T12:31:21.937Z,0.20
2023-01-19T12:33:48.665Z,0.10
2023-01-19T12:36:29.935Z,0.10
2023-01-19T12:39:19.881Z,0.10
2023-01-19T12:41:47.239Z,0.15
2023-01-19T12:44:16.479Z,0.30
2023-01-19T12:46:44.162Z,0.10
2023-01-19T12:49:27.659Z,1.10
2023-01-19T12:52:19.616Z,0.20
2023-01-19T12:55:01.205Z,0.40
2023-01-19T12:57:54.827Z,0.20
2023-01-19T13:00:24.247Z,0.20
2023-01-19T13:03:18.502Z,0.13
2023-01-19T13:05:44.896Z,0.40
2023-01-19T13:08:14.106Z,0.10
2023-01-19T13:10:59.360Z,0.10
2023-01-19T13:13:28.566Z,0.10
2023-01-19T13:15:56.524Z,0.15
2023-01-19T13:18:35.097Z,0.10
2023-01-19T13:21:06.464Z,0.15
2023-01-19T13:23:49.831Z,0.10
2023-01-19T13:26:25.498Z,0.10
2023-01-19T13:28:57.975Z,0.20
2023-01-19T13:31:25.748Z,0.10
2023-01-19T13:33:58.655Z,0.17
2023-01-19T13:36:30.433Z,0.10
2023-01-19T13:39:00.014Z,0.10
2023-01-19T13:41:31.532Z,0.38
2023-01-19T13:44:18.170Z,0.20
2023-01-19T13:46:46.499Z,0.20
2023-01-19T13:49:36.266Z,0.10
2023-01-19T13:52:17.177Z,0.28
2023-01-19T13:55:03.085Z,0.20
2023-01-19T13:57:39.475Z,0.47
2023-01-19T14:00:11.931Z,0.13
2023-01-19T14:02:40.064Z,0.10
2023-01-19T14:05:26.932Z,0.10
2023-01-19T14:08:08.745Z,0.10
2023-01-19T14:10:41.193Z,0.10
2023-01-19T14:13:13.685Z,0.20
2023-01-19T14:15:43.035Z,0.20
2023-01-19T14:18:24.851Z,0.20
2023-01-19T14:21:03.348Z,0.10
2023-01-19T14:23:48.249Z,0.10
2023-01-19T14:26:42.232Z,0.15
2023-01-19T14:29:26.833Z,0.10
2023-01-19T14:31:53.391Z,0.10
2023-01-19T14:34:42.387Z,0.10
2023-01-19T14:37:17.946Z,0.20
2023-01-19T14:39:47.141Z,0.30
2023-01-19T14:42:21.387Z,0.20
2023-01-19T14:44:51.561Z,0.10
2023-01-19T14:47:31.772Z,0.10
2023-01-19T14:50:03.550Z,0.10
2023-01-19T14:52:38.641Z,0.10
2023-01-19T14:55:08.254Z,0.15
2023-01-19T14:57:36.504Z,0.17
2023-01-19T15:00:12.396Z,0.20
2023-01-19T15:02:38.825Z,0.10
2023-01-19T15:05:05.949Z,0.25
2023-01-19T15:07:32.643Z,0.30
2023-01-19T15:09:59.419Z,0.82
2023-01-19T15:12:27.836Z,1.50
2023-01-19T15:14:54.350Z,0.30
2023-01-19T15:17:25.578Z,0.30
2023-01-19T15:19:56.038Z,0.22
2023-01-19T15:22:25.268Z,0.20
2023-01-19T15:24:51.773Z,0.15
2023-01-19T15:27:18.286Z,0.20
2023-01-19T15:29:46.102Z,0.40
2023-01-19T15:32:14.182Z,0.20
2023-01-19T15:34:41.593Z,0.20
2023-01-19T15:37:08.512Z,0.45
2023-01-19T15:39:35.342Z,0.27
2023-01-19T15:42:02.001Z,0.30
2023-01-19T15:44:29.735Z,0.30
2023-01-19T15:46:57.380Z,0.20
2023-01-19T15:49:24.073Z,0.10
2023-01-19T15:51:50.617Z,0.60
2023-01-19T15:54:18.390Z,0.20
2023-01-19T15:56:44.935Z,0.28
2023-01-19T15:59:11.437Z,0.17
2023-01-19T16:01:39.816Z,0.15
2023-01-19T16:04:07.741Z,0.17
2023-01-19T16:06:34.372Z,0.30
2023-01-19T16:09:01.523Z,0.30
2023-01-19T16:11:33.577Z,0.20
2023-01-19T16:14:00.562Z,0.30
2023-01-19T16:16:28.421Z,0.30
2023-01-19T16:18:55.737Z,0.25
2023-01-19T16:21:22.702Z,0.20
2023-01-19T16:23:49.561Z,0.20
2023-01-19T16:26:35.149Z,0.40
2023-01-19T16:29:08.512Z,0.40
2023-01-19T16:31:36.190Z,0.40
2023-01-19T16:34:02.666Z,0.38
2023-01-19T16:36:31.912Z,0.82
2023-01-19T16:39:08.458Z,2.72
2023-01-19T16:41:36.160Z,2.47
2023-01-19T16:44:03.243Z,0.93
2023-01-19T16:46:33.838Z,1.00
2023-01-19T16:49:12.413Z,1.55
2023-01-19T16:51:38.874Z,1.73
2023-01-19T16:54:06.674Z,1.37
2023-01-19T16:56:38.331Z,1.70
2023-01-19T16:59:04.947Z,1.27
2023-01-19T17:01:31.592Z,1.05
2023-01-19T17:03:58.163Z,1.58
2023-01-19T17:06:25.089Z,1.30
2023-01-19T17:08:52.861Z,1.15
2023-01-19T17:11:22.623Z,1.35
2023-01-19T17:14:00.655Z,1.20
2023-01-19T17:16:29.180Z,1.10
2023-01-19T17:19:00.900Z,1.10
2023-01-19T17:21:27.757Z,0.88
2023-01-19T17:23:55.414Z,1.27
2023-01-19T17:26:25.282Z,1.70
2023-01-19T17:28:52.186Z,1.00
2023-01-19T17:31:21.795Z,1.20
2023-01-19T17:33:50.135Z,1.30
2023-01-19T17:36:22.194Z,1.40
2023-01-19T17:38:49.508Z,1.60
2023-01-19T17:41:21.920Z,1.90
2023-01-19T17:43:50.293Z,1.77
2023-01-19T17:46:18.048Z,1.50
2023-01-19T17:48:44.837Z,2.33
2023-01-19T17:51:13.043Z,2.22
2023-01-19T17:53:41.015Z,1.65
2023-01-19T17:56:14.100Z,1.40
2023-01-19T17:58:41.384Z,1.10
2023-01-19T18:01:28.838Z,0.95
2023-01-19T18:03:55.711Z,1.10
2023-01-19T18:06:22.520Z,1.05
2023-01-19T18:08:50.150Z,1.37
2023-01-19T18:11:18.565Z,1.45
2023-01-19T18:13:46.516Z,1.42
2023-01-19T18:16:16.462Z,1.30
2023-01-19T18:18:44.248Z,1.98
2023-01-19T18:21:13.225Z,3.20
2023-01-19T18:23:40.569Z,4.70
2023-01-19T18:26:10.715Z,5.97
2023-01-19T18:28:37.393Z,4.85
2023-01-19T18:31:12.341Z,4.45
2023-01-19T18:33:39.537Z,3.33
2023-01-19T18:36:06.855Z,2.20
2023-01-19T18:38:33.901Z,2.15
2023-01-19T18:41:21.393Z,1.52
2023-01-19T18:43:49.889Z,1.80
2023-01-19T18:46:18.791Z,1.87
2023-01-19T18:48:45.605Z,2.15
2023-01-19T18:51:14.528Z,1.63
2023-01-19T18:53:41.558Z,1.67
2023-01-19T18:56:08.636Z,1.40
2023-01-19T18:58:37.886Z,1.47
2023-01-19T19:01:05.457Z,1.42
2023-01-19T19:03:31.925Z,1.30
2023-01-19T19:06:03.052Z,1.63
2023-01-19T19:08:30.046Z,1.70
2023-01-19T19:10:56.447Z,3.57
2023-01-19T19:13:23.609Z,2.55
2023-01-19T19:15:52.742Z,3.05
2023-01-19T19:18:19.496Z,2.17
2023-01-19T19:20:45.858Z,1.25
2023-01-19T19:23:12.301Z,1.60
2023-01-19T19:25:38.953Z,1.52
2023-01-19T19:28:05.941Z,1.45
2023-01-19T19:30:34.458Z,1.50
2023-01-19T19:33:01.187Z,1.95
2023-01-19T19:35:27.599Z,1.70
2023-01-19T19:37:57.552Z,1.17
2023-01-19T19:40:25.637Z,1.35
2023-01-19T19:42:52.117Z,4.38
2023-01-19T19:45:19.405Z,4.47
2023-01-19T19:47:45.831Z,4.43
2023-01-19T19:50:12.729Z,2.90
2023-01-19T19:52:40.505Z,2.38
2023-01-19T19:55:09.328Z,2.15
2023-01-19T19:57:35.991Z,4.68
2023-01-19T20:00:04.558Z,5.83
2023-01-19T20:02:31.836Z,5.28
2023-01-19T20:04:58.716Z,5.32
2023-01-19T20:07:25.437Z,2.30
2023-01-19T20:09:55.558Z,3.67
2023-01-19T20:12:22.478Z,1.57
2023-01-19T20:14:49.317Z,0.90
2023-01-19T20:17:16.049Z,1.00
2023-01-19T20:19:45.567Z,0.75
2023-01-19T20:22:12.447Z,0.60
2023-01-19T20:24:39.060Z,0.80
2023-01-19T20:27:05.535Z,1.13
2023-01-19T20:29:32.155Z,0.50
2023-01-19T20:31:58.604Z,0.38
2023-01-19T20:34:28.628Z,0.60
2023-01-19T20:36:57.016Z,0.37
2023-01-19T20:39:24.733Z,0.40
2023-01-19T20:41:52.486Z,0.40
2023-01-19T20:44:26.652Z,0.75
2023-01-19T20:46:54.763Z,0.20
2023-01-19T20:49:21.809Z,0.23
2023-01-19T20:51:48.477Z,0.10
2023-01-19T20:54:17.610Z,0.20
2023-01-19T20:56:44.245Z,0.10
2023-01-19T20:59:11.949Z,0.10
2023-01-19T21:01:39.668Z,0.10
2023-01-19T21:04:06.671Z,0.20
2023-01-19T21:06:33.345Z,0.30
2023-01-19T21:08:59.748Z,0.40
2023-01-19T21:11:26.550Z,0.25
2023-01-19T21:13:55.711Z,0.30
2023-01-19T21:16:28.316Z,0.30
2023-01-19T21:18:54.993Z,0.35
2023-01-19T21:21:30.461Z,0.17
2023-01-19T21:23:59.492Z,0.70
2023-01-19T21:26:25.974Z,1.07
2023-01-19T21:28:52.369Z,0.47
2023-01-19T21:31:18.898Z,0.77
2023-01-19T21:33:45.454Z,0.75
2023-01-19T21:36:11.951Z,0.80
2023-01-19T21:38:39.361Z,0.60
2023-01-19T21:41:12.434Z,0.93
2023-01-19T21:43:40.931Z,0.80
2023-01-19T21:46:10.469Z,0.70
2023-01-19T21:48:37.219Z,0.70
2023-01-19T21:51:03.798Z,0.60
2023-01-19T21:53:30.266Z,0.70
2023-01-19T21:55:57.013Z,0.82
2023-01-19T21:58:23.778Z,0.93
2023-01-19T22:00:50.651Z,1.27
2023-01-19T22:03:17.151Z,1.57
2023-01-19T22:05:43.569Z,1.58
2023-01-19T22:08:10.056Z,1.67
2023-01-19T22:10:37.494Z,1.50
2023-01-19T22:13:06.527Z,1.27
2023-01-19T22:15:32.934Z,1.33
2023-01-19T22:17:59.363Z,1.85
2023-01-19T22:20:26.311Z,1.45
2023-01-19T22:22:52.779Z,1.70
2023-01-19T22:25:23.741Z,1.80
2023-01-19T22:27:50.156Z,2.20
2023-01-19T22:30:16.986Z,2.45
2023-01-19T22:32:43.408Z,2.50
2023-01-19T22:35:09.842Z,2.45
2023-01-19T22:37:36.677Z,3.10
2023-01-19T22:40:04.337Z,2.80
2023-01-19T22:42:31.182Z,2.63
2023-01-19T22:45:00.482Z,3.17
2023-01-19T22:47:29.587Z,2.80
2023-01-19T22:49:55.998Z,2.92
2023-01-19T22:52:22.361Z,2.60
2023-01-19T22:54:48.903Z,2.80
2023-01-19T22:57:15.730Z,3.10
2023-01-19T22:59:43.563Z,3.30
2023-01-19T23:02:10.037Z,2.75
2023-01-19T23:04:36.697Z,3.10
2023-01-19T23:07:03.190Z,2.72
2023-01-19T23:09:29.580Z,2.40
2023-01-19T23:11:55.962Z,2.80
2023-01-19T23:14:22.455Z,2.78
2023-01-19T23:16:48.919Z,2.40
2023-01-19T23:19:17.149Z,2.05
2023-01-19T23:21:44.719Z,2.90
2023-01-19T23:24:11.731Z,2.20
2023-01-19T23:26:38.721Z,1.92
2023-01-19T23:29:15.200Z,2.33
2023-01-19T23:31:47.187Z,2.33
2023-01-19T23:34:14.306Z,2.58
2023-01-19T23:36:42.171Z,2.30
2023-01-19T23:39:14.495Z,1.88
2023-01-19T23:41:40.968Z,1.63
2023-01-19T23:44:07.604Z,1.98
2023-01-19T23:46:34.045Z,1.75
2023-01-19T23:49:00.392Z,2.30
2023-01-19T23:51:29.577Z,1.83
2023-01-19T23:53:57.437Z,1.57
2023-01-19T23:56:34.771Z,1.65
2023-01-19T23:59:09.910Z,1.73
